createdAt,value
2023-01-12T00:01:21.508Z,100696.50
2023-01-12T00:03:48.460Z,100693.09
2023-01-12T00:06:15.875Z,100694.50
2023-01-12T00:08:42.284Z,100687.69
2023-01-12T00:11:09.118Z,100704.75
2023-01-12T00:13:35.317Z,100704.16
2023-01-12T00:16:21.952Z,100703.31
2023-01-12T00:18:48.981Z,100708.72
2023-01-12T00:21:16.990Z,100703.59
2023-01-12T00:23:43.575Z,100707.59
2023-01-12T00:26:10.902Z,100712.69
2023-01-12T00:28:38.371Z,100717.53
2023-01-12T00:31:08.176Z,100716.53
2023-01-12T00:33:35.889Z,100706.72
2023-01-12T00:36:07.623Z,100710.16
2023-01-12T00:38:35.673Z,100711.84
2023-01-12T00:41:10.262Z,100711.84
2023-01-12T00:43:55.325Z,100712.97
2023-01-12T00:46:30.160Z,100709.28
2023-01-12T00:48:56.371Z,100719.53
2023-01-12T00:51:22.925Z,100715.69
2023-01-12T00:53:49.201Z,100729.91
2023-01-12T00:56:15.758Z,100725.63
2023-01-12T00:58:41.837Z,100724.78
2023-01-12T01:01:08.422Z,100736.56
2023-01-12T01:03:35.377Z,100731.47
2023-01-12T01:06:04.646Z,100726.47
2023-01-12T01:08:31.875Z,100727.03
2023-01-12T01:11:03.850Z,100730.59
2023-01-12T01:13:30.039Z,100724.34
2023-01-12T01:16:00.852Z,100724.91
2023-01-12T01:18:28.265Z,100733.00
2023-01-12T01:20:55.216Z,100724.78
2023-01-12T01:23:23.679Z,100722.63
2023-01-12T01:25:50.656Z,100735.56
2023-01-12T01:28:17.701Z,100731.84
2023-01-12T01:30:46.084Z,100746.16
2023-01-12T01:33:13.649Z,100751.13
2023-01-12T01:35:40.416Z,100745.84
2023-01-12T01:38:06.559Z,100750.41
2023-01-12T01:40:33.308Z,100745.72
2023-01-12T01:42:59.680Z,100741.56
2023-01-12T01:45:26.235Z,100739.59
2023-01-12T01:47:56.942Z,100743.88
2023-01-12T01:50:29.213Z,100735.91
2023-01-12T01:53:02.380Z,100746.84
2023-01-12T01:55:36.130Z,100741.31
2023-01-12T01:58:07.415Z,100756.38
2023-01-12T02:00:35.632Z,100749.53
2023-01-12T02:03:04.261Z,100758.75
2023-01-12T02:05:32.341Z,100751.66
2023-01-12T02:08:07.667Z,100752.66
2023-01-12T02:10:34.179Z,100752.78
2023-01-12T02:13:18.691Z,100762.59
2023-01-12T02:16:19.823Z,100755.75
2023-01-12T02:19:09.383Z,100762.00
2023-01-12T02:21:51.273Z,100758.47
2023-01-12T02:24:44.943Z,100750.75
2023-01-12T02:27:33.451Z,100753.47
2023-01-12T02:30:02.246Z,100752.47
2023-01-12T02:32:30.389Z,100745.06
2023-01-12T02:35:15.288Z,100753.16
2023-01-12T02:37:45.890Z,100746.19
2023-01-12T02:40:35.952Z,100753.41
2023-01-12T02:43:08.717Z,100761.38
2023-01-12T02:45:51.327Z,100765.19
2023-01-12T02:48:23.210Z,100759.66
2023-01-12T02:50:56.810Z,100764.34
2023-01-12T02:53:42.695Z,100752.09
2023-01-12T02:56:11.387Z,100752.09
2023-01-12T02:58:44.880Z,100757.78
2023-01-12T03:01:13.543Z,100756.06
2023-01-12T03:03:41.906Z,100758.03
2023-01-12T03:06:08.423Z,100756.19
2023-01-12T03:08:38.030Z,100758.44
2023-01-12T03:11:15.418Z,100750.22
2023-01-12T03:13:51.161Z,100765.81
2023-01-12T03:16:28.896Z,100761.81
2023-01-12T03:19:09.008Z,100757.13
2023-01-12T03:21:39.649Z,100760.69
2023-01-12T03:24:12.334Z,100755.81
2023-01-12T03:26:45.367Z,100746.28
2023-01-12T03:29:35.427Z,100754.25
2023-01-12T03:32:02.631Z,100750.56
2023-01-12T03:34:29.987Z,100745.16
2023-01-12T03:37:05.211Z,100746.28
2023-01-12T03:39:49.877Z,100751.09
2023-01-12T03:42:35.335Z,100744.84
2023-01-12T03:45:17.650Z,100740.03
2023-01-12T03:47:44.185Z,100741.44
2023-01-12T03:50:20.196Z,100742.09
2023-01-12T03:52:47.734Z,100732.88
2023-01-12T03:55:17.777Z,100730.31
2023-01-12T03:57:45.759Z,100737.63
2023-01-12T04:00:14.075Z,100734.06
2023-01-12T04:02:44.002Z,100744.72
2023-01-12T04:05:13.800Z,100744.38
2023-01-12T04:07:40.337Z,100739.66
2023-01-12T04:10:07.596Z,100741.88
2023-01-12T04:12:34.182Z,100746.41
2023-01-12T04:15:00.914Z,100742.59
2023-01-12T04:17:28.427Z,100740.44
2023-01-12T04:19:54.851Z,100740.94
2023-01-12T04:22:39.327Z,100730.31
2023-01-12T04:25:07.924Z,100733.00
2023-01-12T04:27:35.672Z,100737.78
2023-01-12T04:30:02.705Z,100743.19
2023-01-12T04:32:28.883Z,100731.81
2023-01-12T04:34:55.422Z,100747.63
2023-01-12T04:37:21.612Z,100742.84
2023-01-12T04:39:48.064Z,100733.84
2023-01-12T04:42:52.699Z,100741.38
2023-01-12T04:45:19.278Z,100743.38
2023-01-12T04:47:45.394Z,100745.06
2023-01-12T04:50:12.087Z,100729.75
2023-01-12T04:52:39.027Z,100734.16
2023-01-12T04:55:06.191Z,100731.59
2023-01-12T04:57:32.425Z,100731.88
2023-01-12T04:59:58.909Z,100733.72
2023-01-12T05:02:26.536Z,100731.16
2023-01-12T05:04:53.768Z,100734.09
2023-01-12T05:07:19.924Z,100736.56
2023-01-12T05:10:04.873Z,100737.78
2023-01-12T05:12:31.101Z,100748.31
2023-01-12T05:14:57.570Z,100738.50
2023-01-12T05:17:23.795Z,100740.94
2023-01-12T05:19:50.253Z,100738.13
2023-01-12T05:22:16.376Z,100737.28
2023-01-12T05:24:42.795Z,100750.28
2023-01-12T05:27:08.908Z,100743.91
2023-01-12T05:29:35.345Z,100747.84
2023-01-12T05:32:01.551Z,100744.75
2023-01-12T05:34:28.079Z,100745.63
2023-01-12T05:36:54.591Z,100740.94
2023-01-12T05:39:21.120Z,100736.94
2023-01-12T05:42:06.034Z,100731.66
2023-01-12T05:44:32.700Z,100732.66
2023-01-12T05:46:58.978Z,100733.03
2023-01-12T05:49:25.722Z,100725.56
2023-01-12T05:51:51.943Z,100720.56
2023-01-12T05:54:18.492Z,100714.06
2023-01-12T05:56:44.936Z,100705.72
2023-01-12T05:59:11.744Z,100710.63
2023-01-12T06:01:39.740Z,100715.03
2023-01-12T06:04:06.271Z,100706.63
2023-01-12T06:06:32.708Z,100702.44
2023-01-12T06:09:00.473Z,100705.00
2023-01-12T06:11:47.343Z,100705.59
2023-01-12T06:14:13.890Z,100705.13
2023-01-12T06:16:42.032Z,100695.19
2023-01-12T06:19:12.331Z,100697.91
2023-01-12T06:21:39.653Z,100691.44
2023-01-12T06:24:06.418Z,100693.03
2023-01-12T06:26:32.711Z,100689.34
2023-01-12T06:28:59.343Z,100688.09
2023-01-12T06:31:25.823Z,100676.59
2023-01-12T06:33:52.372Z,100693.38
2023-01-12T06:36:18.644Z,100696.66
2023-01-12T06:38:45.111Z,100701.53
2023-01-12T06:41:31.363Z,100696.06
2023-01-12T06:43:58.535Z,100701.19
2023-01-12T06:46:26.238Z,100703.88
2023-01-12T06:49:02.484Z,100697.84
2023-01-12T06:51:30.010Z,100699.16
2023-01-12T06:53:56.813Z,100684.81
2023-01-12T06:56:23.421Z,100695.59
2023-01-12T06:58:50.237Z,100697.06
2023-01-12T07:01:18.546Z,100690.53
2023-01-12T07:03:45.609Z,100692.31
2023-01-12T07:06:13.633Z,100694.16
2023-01-12T07:08:40.294Z,100686.91
2023-01-12T07:11:07.396Z,100687.78
2023-01-12T07:13:34.194Z,100692.63
2023-01-12T07:16:01.115Z,100682.16
2023-01-12T07:18:29.015Z,100683.47
2023-01-12T07:20:55.396Z,100669.47
2023-01-12T07:23:22.226Z,100681.97
2023-01-12T07:25:48.505Z,100678.34
2023-01-12T07:28:15.227Z,100677.69
2023-01-12T07:30:41.495Z,100679.94
2023-01-12T07:33:10.024Z,100683.13
2023-01-12T07:35:36.685Z,100679.31
2023-01-12T07:38:03.919Z,100678.94
2023-01-12T07:40:30.144Z,100684.22
2023-01-12T07:43:08.702Z,100677.53
2023-01-12T07:45:36.030Z,100680.69
2023-01-12T07:48:03.177Z,100669.94
2023-01-12T07:50:29.747Z,100677.88
2023-01-12T07:53:00.564Z,100677.63
2023-01-12T07:55:26.779Z,100674.78
2023-01-12T07:57:54.390Z,100670.66
2023-01-12T08:00:22.654Z,100678.22
2023-01-12T08:02:53.700Z,100669.69
2023-01-12T08:05:21.566Z,100661.03
2023-01-12T08:07:48.358Z,100663.72
2023-01-12T08:10:15.814Z,100670.28
2023-01-12T08:12:42.693Z,100668.28
2023-01-12T08:15:11.407Z,100665.31
2023-01-12T08:17:54.171Z,100669.00
2023-01-12T08:20:31.500Z,100672.84
2023-01-12T08:23:03.854Z,100664.31
2023-01-12T08:25:34.809Z,100667.75
2023-01-12T08:28:06.173Z,100669.44
2023-01-12T08:30:32.739Z,100674.00
2023-01-12T08:33:00.834Z,100668.47
2023-01-12T08:35:31.190Z,100673.03
2023-01-12T08:37:58.295Z,100670.31
2023-01-12T08:40:44.731Z,100672.47
2023-01-12T08:43:11.943Z,100666.50
2023-01-12T08:45:38.153Z,100666.06
2023-01-12T08:48:04.928Z,100672.91
2023-01-12T08:50:31.300Z,100671.75
2023-01-12T08:52:58.149Z,100671.91
2023-01-12T08:55:24.399Z,100664.63
2023-01-12T08:57:51.033Z,100660.66
2023-01-12T09:00:18.059Z,100672.69
2023-01-12T09:02:44.683Z,100678.94
2023-01-12T09:05:11.138Z,100677.22
2023-01-12T09:07:37.667Z,100669.69
2023-01-12T09:10:05.863Z,100674.78
2023-01-12T09:12:32.542Z,100669.63
2023-01-12T09:14:58.923Z,100678.88
2023-01-12T09:17:26.111Z,100666.47
2023-01-12T09:19:52.403Z,100665.34
2023-01-12T09:22:18.949Z,100652.66
2023-01-12T09:24:45.387Z,100661.06
2023-01-12T09:27:11.838Z,100647.84
2023-01-12T09:29:38.143Z,100653.38
2023-01-12T09:32:05.192Z,100652.06
2023-01-12T09:34:31.465Z,100640.00
2023-01-12T09:36:58.917Z,100640.28
2023-01-12T09:39:28.598Z,100644.84
2023-01-12T09:42:15.904Z,100642.25
2023-01-12T09:45:03.792Z,100640.25
2023-01-12T09:47:55.582Z,100642.94
2023-01-12T09:50:31.054Z,100637.44
2023-01-12T09:53:12.063Z,100636.31
2023-01-12T09:55:51.139Z,100629.19
2023-01-12T09:58:25.124Z,100620.13
2023-01-12T10:00:56.096Z,100619.81
2023-01-12T10:03:36.925Z,100618.00
2023-01-12T10:06:05.558Z,100618.84
2023-01-12T10:08:41.352Z,100616.41
2023-01-12T10:11:24.607Z,100616.72
2023-01-12T10:14:19.221Z,100608.16
2023-01-12T10:17:00.849Z,100616.13
2023-01-12T10:19:50.855Z,100608.41
2023-01-12T10:22:36.165Z,100610.72
2023-01-12T10:25:18.142Z,100602.16
2023-01-12T10:27:46.837Z,100601.56
2023-01-12T10:30:34.373Z,100589.97
2023-01-12T10:33:14.492Z,100597.81
2023-01-12T10:36:08.247Z,100588.84
2023-01-12T10:38:51.797Z,100590.09
2023-01-12T10:41:26.699Z,100578.91
2023-01-12T10:43:55.848Z,100574.66
2023-01-12T10:46:26.179Z,100566.66
2023-01-12T10:49:13.849Z,100561.47
2023-01-12T10:51:54.122Z,100556.47
2023-01-12T10:54:45.221Z,100543.09
2023-01-12T10:57:19.221Z,100540.81
2023-01-12T10:59:54.103Z,100551.13
2023-01-12T11:02:22.591Z,100542.69
2023-01-12T11:04:51.678Z,100536.94
2023-01-12T11:07:28.205Z,100533.22
2023-01-12T11:09:59.030Z,100530.22
2023-01-12T11:12:39.559Z,100522.69
2023-01-12T11:15:08.799Z,100521.44
2023-01-12T11:18:04.580Z,100516.28
2023-01-12T11:20:40.485Z,100513.28
2023-01-12T11:23:15.826Z,100502.91
2023-01-12T11:25:45.988Z,100505.84
2023-01-12T11:28:36.675Z,100500.59
2023-01-12T11:31:19.182Z,100500.00
2023-01-12T11:34:00.366Z,100500.16
2023-01-12T11:36:29.963Z,100494.75
2023-01-12T11:39:00.129Z,100499.31
2023-01-12T11:41:42.605Z,100490.13
2023-01-12T11:44:30.321Z,100485.06
2023-01-12T11:47:05.262Z,100466.59
2023-01-12T11:49:44.026Z,100467.53
2023-01-12T11:52:12.684Z,100466.38
2023-01-12T11:54:40.737Z,100460.56
2023-01-12T11:57:37.709Z,100461.84
2023-01-12T12:00:19.391Z,100458.88
2023-01-12T12:03:24.990Z,100452.59
2023-01-12T12:06:13.548Z,100438.25
2023-01-12T12:09:07.333Z,100445.59
2023-01-12T12:11:50.505Z,100437.81
2023-01-12T12:14:33.770Z,100443.44
2023-01-12T12:17:32.364Z,100440.72
2023-01-12T12:20:14.081Z,100435.47
2023-01-12T12:22:40.560Z,100430.38
2023-01-12T12:25:23.451Z,100425.59
2023-01-12T12:27:49.921Z,100431.34
2023-01-12T12:30:32.199Z,100429.47
2023-01-12T12:33:07.800Z,100427.25
2023-01-12T12:35:57.487Z,100419.13
2023-01-12T12:39:09.566Z,100420.28
2023-01-12T12:41:59.069Z,100412.38
2023-01-12T12:44:56.188Z,100416.13
2023-01-12T12:47:42.153Z,100409.69
2023-01-12T12:51:00.241Z,100405.47
2023-01-12T12:53:34.884Z,100395.97
2023-01-12T12:56:11.518Z,100405.31
2023-01-12T12:58:49.261Z,100390.03
2023-01-12T13:01:18.830Z,100388.50
2023-01-12T13:03:50.405Z,100387.34
2023-01-12T13:06:25.594Z,100379.19
2023-01-12T13:08:54.852Z,100386.69
2023-01-12T13:11:53.037Z,100378.91
2023-01-12T13:14:36.128Z,100376.38
2023-01-12T13:17:17.992Z,100379.25
2023-01-12T13:19:47.124Z,100385.03
2023-01-12T13:22:32.194Z,100378.72
2023-01-12T13:25:18.770Z,100372.63
2023-01-12T13:27:54.841Z,100371.75
2023-01-12T13:30:21.952Z,100367.00
2023-01-12T13:33:16.490Z,100363.78
2023-01-12T13:35:46.329Z,100369.03
2023-01-12T13:38:51.726Z,100377.03
2023-01-12T13:41:54.233Z,100368.03
2023-01-12T13:44:29.578Z,100369.22
2023-01-12T13:47:06.698Z,100363.97
2023-01-12T13:49:42.837Z,100370.41
2023-01-12T13:52:28.394Z,100369.03
2023-01-12T13:54:55.161Z,100373.13
2023-01-12T13:57:24.081Z,100369.19
2023-01-12T14:00:10.837Z,100365.97
2023-01-12T14:02:41.099Z,100369.00
2023-01-12T14:05:27.942Z,100368.16
2023-01-12T14:08:03.332Z,100369.16
2023-01-12T14:10:48.669Z,100361.56
2023-01-12T14:13:43.102Z,100365.97
2023-01-12T14:16:37.193Z,100360.53
2023-01-12T14:19:26.958Z,100359.16
2023-01-12T14:21:59.362Z,100365.44
2023-01-12T14:24:25.651Z,100358.13
2023-01-12T14:26:52.328Z,100351.31
2023-01-12T14:29:18.612Z,100361.50
2023-01-12T14:31:51.454Z,100357.59
2023-01-12T14:34:36.655Z,100365.56
2023-01-12T14:37:07.141Z,100348.97
2023-01-12T14:39:40.349Z,100345.88
2023-01-12T14:42:35.404Z,100348.22
2023-01-12T14:45:20.653Z,100350.78
2023-01-12T14:47:47.102Z,100348.22
2023-01-12T14:50:13.177Z,100347.22
2023-01-12T14:52:41.779Z,100343.47
2023-01-12T14:55:18.274Z,100347.88
2023-01-12T14:57:51.730Z,100339.38
2023-01-12T15:00:24.565Z,100348.03
2023-01-12T15:02:53.914Z,100340.19
2023-01-12T15:05:24.687Z,100347.47
2023-01-12T15:07:56.396Z,100332.09
2023-01-12T15:10:28.877Z,100342.75
2023-01-12T15:12:57.943Z,100335.63
2023-01-12T15:15:49.328Z,100336.09
2023-01-12T15:18:34.604Z,100340.34
2023-01-12T15:21:20.647Z,100336.25
2023-01-12T15:24:06.919Z,100344.56
2023-01-12T15:26:33.759Z,100341.00
2023-01-12T15:29:00.701Z,100339.97
2023-01-12T15:31:32.130Z,100334.56
2023-01-12T15:34:00.671Z,100338.94
2023-01-12T15:36:27.185Z,100332.50
2023-01-12T15:38:54.044Z,100333.50
2023-01-12T15:41:44.114Z,100338.41
2023-01-12T15:44:16.476Z,100332.47
2023-01-12T15:46:43.435Z,100326.34
2023-01-12T15:49:14.926Z,100324.97
2023-01-12T15:51:45.611Z,100327.38
2023-01-12T15:54:13.206Z,100322.63
2023-01-12T15:56:39.919Z,100319.06
2023-01-12T15:59:06.662Z,100311.44
2023-01-12T16:01:43.572Z,100311.09
2023-01-12T16:04:46.027Z,100318.91
2023-01-12T16:07:12.269Z,100311.09
2023-01-12T16:09:40.401Z,100316.03
2023-01-12T16:12:08.076Z,100311.47
2023-01-12T16:14:34.694Z,100315.03
2023-01-12T16:17:01.027Z,100310.31
2023-01-12T16:19:27.706Z,100313.50
2023-01-12T16:21:54.433Z,100310.78
2023-01-12T16:24:23.480Z,100315.41
2023-01-12T16:26:49.814Z,100314.38
2023-01-12T16:29:18.600Z,100317.41
2023-01-12T16:31:44.975Z,100307.59
2023-01-12T16:34:11.615Z,100314.22
2023-01-12T16:36:37.941Z,100314.38
2023-01-12T16:39:04.614Z,100306.09
2023-01-12T16:41:30.915Z,100315.25
2023-01-12T16:43:57.991Z,100309.16
2023-01-12T16:46:24.167Z,100308.47
2023-01-12T16:48:51.851Z,100302.38
2023-01-12T16:51:18.551Z,100299.66
2023-01-12T16:53:46.580Z,100296.31
2023-01-12T16:56:15.506Z,100300.72
2023-01-12T16:58:47.048Z,100301.03
2023-01-12T17:01:16.302Z,100297.16
2023-01-12T17:03:43.086Z,100293.13
2023-01-12T17:06:11.015Z,100301.72
2023-01-12T17:08:38.292Z,100296.16
2023-01-12T17:11:09.913Z,100294.63
2023-01-12T17:13:36.851Z,100300.56
2023-01-12T17:16:06.744Z,100295.66
2023-01-12T17:18:33.680Z,100292.59
2023-01-12T17:21:01.367Z,100288.72
2023-01-12T17:23:28.259Z,100290.56
2023-01-12T17:25:55.679Z,100293.59
2023-01-12T17:28:22.609Z,100295.66
2023-01-12T17:30:49.303Z,100294.28
2023-01-12T17:33:16.774Z,100286.31
2023-01-12T17:35:43.187Z,100287.00
2023-01-12T17:38:09.851Z,100285.47
2023-01-12T17:40:38.002Z,100283.13
2023-01-12T17:43:07.707Z,100275.31
2023-01-12T17:45:41.753Z,100276.53
2023-01-12T17:48:11.142Z,100276.16
2023-01-12T17:50:40.745Z,100282.09
2023-01-12T17:53:10.101Z,100277.03
2023-01-12T17:55:47.499Z,100269.75
2023-01-12T17:58:17.734Z,100274.50
2023-01-12T18:00:44.241Z,100272.63
2023-01-12T18:03:10.913Z,100275.34
2023-01-12T18:05:37.277Z,100268.22
2023-01-12T18:08:04.201Z,100273.13
2023-01-12T18:10:30.687Z,100276.38
2023-01-12T18:12:57.484Z,100276.53
2023-01-12T18:15:23.707Z,100273.97
2023-01-12T18:17:50.447Z,100279.72
2023-01-12T18:20:16.939Z,100277.53
2023-01-12T18:22:44.078Z,100267.19
2023-01-12T18:25:10.375Z,100270.75
2023-01-12T18:27:36.987Z,100267.88
2023-01-12T18:30:04.261Z,100274.66
2023-01-12T18:32:30.961Z,100274.31
2023-01-12T18:34:58.261Z,100271.09
2023-01-12T18:37:25.158Z,100270.59
2023-01-12T18:39:51.609Z,100277.38
2023-01-12T18:42:36.795Z,100279.41
2023-01-12T18:45:03.986Z,100271.59
2023-01-12T18:47:49.236Z,100269.25
2023-01-12T18:50:38.961Z,100272.31
2023-01-12T18:53:23.658Z,100268.06
2023-01-12T18:55:56.232Z,100269.94
2023-01-12T18:58:29.304Z,100267.72
2023-01-12T19:00:58.125Z,100269.09
2023-01-12T19:03:24.916Z,100264.53
2023-01-12T19:05:54.083Z,100262.69
2023-01-12T19:08:39.804Z,100259.78
2023-01-12T19:11:15.862Z,100263.16
2023-01-12T19:14:01.285Z,100267.56
2023-01-12T19:16:46.754Z,100270.44
2023-01-12T19:19:13.516Z,100267.91
2023-01-12T19:21:58.290Z,100266.03
2023-01-12T19:24:51.116Z,100260.47
2023-01-12T19:27:36.094Z,100267.22
2023-01-12T19:30:03.450Z,100265.19
2023-01-12T19:32:30.140Z,100267.91
2023-01-12T19:35:09.839Z,100258.06
2023-01-12T19:37:37.351Z,100265.19
2023-01-12T19:40:15.032Z,100260.63
2023-01-12T19:43:00.002Z,100264.19
2023-01-12T19:45:27.926Z,100261.47
2023-01-12T19:47:54.401Z,100254.00
2023-01-12T19:50:20.928Z,100256.22
2023-01-12T19:52:47.513Z,100257.75
2023-01-12T19:55:14.317Z,100250.63
2023-01-12T19:57:42.707Z,100247.25
2023-01-12T20:00:14.838Z,100241.16
2023-01-12T20:02:42.728Z,100247.41
2023-01-12T20:05:13.462Z,100243.50
2023-01-12T20:07:41.126Z,100245.56
2023-01-12T20:10:08.487Z,100240.81
2023-01-12T20:12:35.033Z,100239.47
2023-01-12T20:15:02.798Z,100239.78
2023-01-12T20:17:29.458Z,100236.75
2023-01-12T20:19:56.376Z,100243.88
2023-01-12T20:22:23.814Z,100242.84
2023-01-12T20:24:50.375Z,100236.91
2023-01-12T20:27:17.112Z,100243.88
2023-01-12T20:29:43.951Z,100240.81
2023-01-12T20:32:10.510Z,100243.00
2023-01-12T20:34:37.492Z,100237.75
2023-01-12T20:37:04.284Z,100240.63
2023-01-12T20:39:31.292Z,100229.97
2023-01-12T20:41:57.948Z,100225.06
2023-01-12T20:44:24.688Z,100230.81
2023-01-12T20:46:51.446Z,100226.72
2023-01-12T20:49:18.518Z,100229.44
2023-01-12T20:51:45.282Z,100227.59
2023-01-12T20:54:11.953Z,100228.06
2023-01-12T20:56:38.424Z,100223.50
2023-01-12T20:59:05.461Z,100215.69
2023-01-12T21:01:31.900Z,100222.97
2023-01-12T21:03:58.700Z,100229.25
2023-01-12T21:06:25.163Z,100228.91
2023-01-12T21:08:52.486Z,100228.25
2023-01-12T21:11:19.810Z,100225.53
2023-01-12T21:13:46.698Z,100218.25
2023-01-12T21:16:17.218Z,100224.84
2023-01-12T21:18:44.492Z,100222.31
2023-01-12T21:21:11.165Z,100216.72
2023-01-12T21:23:38.438Z,100221.13
2023-01-12T21:26:07.324Z,100220.09
2023-01-12T21:28:36.941Z,100219.44
2023-01-12T21:31:03.852Z,100218.41
2023-01-12T21:33:30.943Z,100217.56
2023-01-12T21:35:58.602Z,100204.19
2023-01-12T21:38:26.505Z,100213.69
2023-01-12T21:40:53.836Z,100212.66
2023-01-12T21:43:21.400Z,100221.31
2023-01-12T21:45:51.228Z,100218.44
2023-01-12T21:48:20.416Z,100218.28
2023-01-12T21:50:47.243Z,100218.59
2023-01-12T21:53:16.910Z,100217.06
2023-01-12T21:55:52.446Z,100213.16
2023-01-12T21:58:19.576Z,100212.31
2023-01-12T22:00:45.800Z,100211.63
2023-01-12T22:03:12.387Z,100215.53
2023-01-12T22:05:38.815Z,100206.72
2023-01-12T22:08:05.384Z,100215.69
2023-01-12T22:10:32.761Z,100209.09
2023-01-12T22:13:03.090Z,100210.44
2023-01-12T22:15:29.649Z,100210.13
2023-01-12T22:17:56.143Z,100195.38
2023-01-12T22:20:23.499Z,100196.38
2023-01-12T22:22:50.616Z,100198.56
2023-01-12T22:25:17.305Z,100197.41
2023-01-12T22:27:44.741Z,100200.78
2023-01-12T22:30:17.727Z,100197.41
2023-01-12T22:32:44.430Z,100192.16
2023-01-12T22:35:11.233Z,100187.56
2023-01-12T22:37:39.745Z,100192.47
2023-01-12T22:40:08.222Z,100192.31
2023-01-12T22:42:53.317Z,100196.38
2023-01-12T22:45:19.967Z,100196.72
2023-01-12T22:47:54.132Z,100189.75
2023-01-12T22:50:21.585Z,100188.56
2023-01-12T22:52:50.097Z,100194.78
2023-01-12T22:55:16.502Z,100189.91
2023-01-12T22:57:42.965Z,100196.16
2023-01-12T23:00:11.992Z,100191.94
2023-01-12T23:02:58.205Z,100188.69
2023-01-12T23:05:26.150Z,100191.22
2023-01-12T23:07:52.703Z,100191.25
2023-01-12T23:10:18.920Z,100191.56
2023-01-12T23:13:05.489Z,100182.91
2023-01-12T23:15:36.555Z,100183.44
2023-01-12T23:18:04.239Z,100176.50
2023-01-12T23:20:31.935Z,100181.75
2023-01-12T23:22:58.644Z,100172.94
2023-01-12T23:25:24.807Z,100175.28
2023-01-12T23:27:51.675Z,100169.06
2023-01-12T23:30:19.072Z,100172.78
2023-01-12T23:32:46.831Z,100171.06
2023-01-12T23:35:13.275Z,100177.84
2023-01-12T23:37:39.869Z,100174.31
2023-01-12T23:40:06.849Z,100181.75
2023-01-12T23:42:33.340Z,100180.72
2023-01-12T23:44:59.578Z,100177.19
2023-01-12T23:47:28.012Z,100168.88
2023-01-12T23:49:54.655Z,100177.84
2023-01-12T23:52:21.129Z,100171.09
2023-01-12T23:54:47.409Z,100168.22
2023-01-12T23:57:13.890Z,100172.81
2023-01-12T23:59:40.091Z,100170.94
